La Ronge Airport
CYVC : now visible

Airfield :











YOU CAN JOIN US ON...

 
LOGIN :

Register | Disclaimer

   EN    FR    IT 

 









Legend :    VFR   Marginal VFR   IFR   Intensive IFR   Very Intensive IFR
Visi :
Ceiling :
>= 8 km
>= 3000ft
5 to 8 km
1000 to 3000 ft
1500m to 5 km
500 to 1000 ft
800 to 1500m
200 to 500 ft
< 800m
< 200 ft
Symbols :   Thunderstorms  Fog  Heavy snow  Heavy precipitations  Wind > 20 kt






- Airport Elevation : 1242 ft
- IATA code : YVC


CYVC - La Ronge

CURRENT METAR :
  • 271900Z 10009G15KT 15SM FEW020 BKN140 M04/M07 A2949 RMK SC1AS6 SLP012

EXPIRED METARs :
  • 271800Z 09012G18KT 15SM BKN120 BKN200 M04/M07 A2949 RMK AS5CC2 SLP013
  • 271700Z 09010KT 15SM FEW025 BKN110 M05/M08 A2950 RMK SC1AS5 SLP018

TAF TAF CYVC
Valid from the 27 at 19:00 until the 28 at 07:00 UTC


271840Z 2719/2807 09012G22KT P6SM BKN120
FM272300 08012G22KT P6SM SCT020 BKN080
TEMPO 2723/2803 5SM -SN BKN020 OVC080
FM280300 05012G22KT 3SM -SN BKN020
TEMPO 2803/2807 P6SM -SN SCT020 OVC030 RMK NXT FCST BY 280100Z
CZWG FIR / North America



MET'MAP, your aeronautical weather chart ! - Copyright ORBIFLY December 2007 - Disclaimer

ORBIFLY MET'MAP TEAM :

Programming & Development : Alexandra Zaïnal
Original concept : Baudouin d'Aumeries
Technical & hardware support : Manuel Goepfert
Assistance : Marc-Olivier Méhu




SOURCES & CREDITS :

   NOAA       Earth
Advisory